Aviation Digital Data Service (ADDS)

Output produced by METARs form (1508 UTC 13 February 2016)
found at http://aviationweather.gov/adds/metars/
 
KMSS 131453Z 1315/1412 27010G20KT P6SM BKN020 
     FM132100 28015KT P6SM BKN035 
     FM140700 30009KT P6SM SCT200